Estación Meteorológica Peña el Pijo (Robertgarden) [ 12/10/18 11:15:59 CET ]

Fecha Hora Presion(HPa) Temp (°C) Humedad % Rocio (°C) Viento ( m/s) Direccion Lluvia 1Hora(mm) Lluvia 24H(mm) LLuvia Total(mm)
2018-Apr-08 01:01:51 998.500 5.2 83 2.5       4.66 190.10
2018-Apr-08 02:02:06 998.600 5.3 83 2.6       4.66 190.10
2018-Apr-08 03:01:43 998.200 4.6 83 1.9       4.66 190.10
2018-Apr-08 04:01:51 998.000 3.6 83 1.0       4.66 190.10
2018-Apr-08 05:01:42 997.900 3.2 84 0.7       4.66 190.10
2018-Apr-08 06:01:48 997.800 3.9 86 1.8       4.66 190.10
2018-Apr-08 07:01:52 997.800 3.8 86 1.7       4.66 190.10
2018-Apr-08 08:01:39 998.100 3.3 86 1.2       4.66 190.10
2018-Apr-08 09:01:36 998.500 4.9 86 2.7       4.66 190.10
2018-Apr-08 10:01:44 998.800 7.5 81 4.5       4.66 190.10
2018-Apr-08 11:01:49 999.300 7.8 76 3.8       4.66 190.10
2018-Apr-08 12:01:56 999.600 8.4 70 3.3       4.66 190.10
2018-Apr-08 13:01:43 999.500 9.7 65 3.4       4.66 190.10
2018-Apr-08 14:01:52 999.800 11.8 55 3.0       4.66 190.10
2018-Apr-08 15:01:52 999.700 11.1 58 3.1 1.2 WNW   4.66 190.10
2018-Apr-08 16:01:39 1000.100 10.4 60 3.0 1.4 N   2.59 190.10
2018-Apr-08 17:01:46 999.500 10.9 57 2.7       0.51 190.10
2018-Apr-08 18:01:45 999.400 9.1 63 2.4 1.9 WNW     190.10
2018-Apr-08 19:01:42 998.900 8.2 67 2.4 1.7 N     190.10
2018-Apr-08 20:01:51 999.100 7.8 64 1.4 2.7 WNW     190.10
2018-Apr-08 21:01:48 999.400 6.6 70 1.5 3.3 WNW     190.10
2018-Apr-08 22:02:11 999.800 6.4 70 1.4         190.10
2018-Apr-08 23:01:56 1000.300 6.7 71 1.8         190.10

Temperatura Máxima:11°    Temperatura Mínima:
Presión Máxima:1000.300 Hpa    Presión Mínima:997.800 Hpa


Volver